createdAt,value
2023-09-23T00:01:11.884Z,97.13
2023-09-23T00:03:40.611Z,188.18
2023-09-23T00:06:09.869Z,215.75
2023-09-23T00:08:38.428Z,236.23
2023-09-23T00:11:07.037Z,207.40
2023-09-23T00:13:39.027Z,258.58
2023-09-23T00:16:12.382Z,324.38
2023-09-23T00:18:40.901Z,353.60
2023-09-23T00:21:09.585Z,226.18
2023-09-23T00:23:38.736Z,246.00
2023-09-23T00:26:08.573Z,287.25
2023-09-23T00:28:38.037Z,361.15
2023-09-23T00:31:10.798Z,281.67
2023-09-23T00:33:41.426Z,247.43
2023-09-23T00:36:10.569Z,213.73
2023-09-23T00:38:39.613Z,262.25
2023-09-23T00:41:09.511Z,190.43
2023-09-23T00:43:38.982Z,214.68
2023-09-23T00:46:07.752Z,247.05
2023-09-23T00:48:40.645Z,273.30
2023-09-23T00:51:10.667Z,150.18
2023-09-23T00:53:41.000Z,203.95
2023-09-23T00:56:11.054Z,229.02
2023-09-23T00:58:41.232Z,196.90
2023-09-23T01:01:10.012Z,119.30
2023-09-23T01:03:40.416Z,128.10
2023-09-23T01:06:18.900Z,183.15
2023-09-23T01:08:48.593Z,194.05
2023-09-23T01:11:19.242Z,188.73
2023-09-23T01:13:51.931Z,154.50
2023-09-23T01:16:22.897Z,157.57
2023-09-23T01:18:54.627Z,102.53
2023-09-23T01:21:23.359Z,86.20
2023-09-23T01:23:54.282Z,105.65
2023-09-23T01:26:22.900Z,158.35
2023-09-23T01:28:51.396Z,202.00
2023-09-23T01:31:22.883Z,136.85
2023-09-23T01:33:52.464Z,167.85
2023-09-23T01:36:21.142Z,123.30
2023-09-23T01:38:50.435Z,169.45
2023-09-23T01:41:20.473Z,132.90
2023-09-23T01:43:50.188Z,142.13
2023-09-23T01:46:18.893Z,90.55
2023-09-23T01:48:47.745Z,116.00
2023-09-23T01:51:17.896Z,104.05
2023-09-23T01:53:46.454Z,103.88
2023-09-23T01:56:14.981Z,113.38
2023-09-23T01:58:45.704Z,107.15
2023-09-23T02:01:15.355Z,83.22
2023-09-23T02:03:45.093Z,104.20
2023-09-23T02:06:14.295Z,97.25
2023-09-23T02:08:43.001Z,57.40
2023-09-23T02:11:11.568Z,103.53
2023-09-23T02:13:42.245Z,83.70
2023-09-23T02:16:12.322Z,71.30
2023-09-23T02:18:41.028Z,101.88
2023-09-23T02:21:10.172Z,67.85
2023-09-23T02:23:38.710Z,79.05
2023-09-23T02:26:08.681Z,114.88
2023-09-23T02:28:38.156Z,68.35
2023-09-23T02:31:06.863Z,105.60
2023-09-23T02:33:36.681Z,131.32
2023-09-23T02:36:05.485Z,82.78
2023-09-23T02:38:34.024Z,143.35
2023-09-23T02:41:04.470Z,85.47
2023-09-23T02:43:33.052Z,124.10
2023-09-23T02:46:02.629Z,72.78
2023-09-23T02:48:31.143Z,73.20
2023-09-23T02:51:05.072Z,109.93
2023-09-23T02:53:34.026Z,90.18
2023-09-23T02:56:06.739Z,66.65
2023-09-23T02:58:35.582Z,85.25
2023-09-23T03:01:06.339Z,111.93
2023-09-23T03:03:38.526Z,135.05
2023-09-23T03:06:11.993Z,106.50
2023-09-23T03:08:40.626Z,78.65
2023-09-23T03:11:14.199Z,90.70
2023-09-23T03:13:42.785Z,107.07
2023-09-23T03:16:15.653Z,136.95
2023-09-23T03:18:56.690Z,92.55
2023-09-23T03:21:26.582Z,104.18
2023-09-23T03:23:54.971Z,107.00
2023-09-23T03:26:23.484Z,163.07
2023-09-23T03:28:52.110Z,100.68
2023-09-23T03:31:20.692Z,90.25
2023-09-23T03:33:49.211Z,127.10
2023-09-23T03:36:18.419Z,101.63
2023-09-23T03:38:48.449Z,92.78
2023-09-23T03:41:17.201Z,119.95
2023-09-23T03:43:45.753Z,137.23
2023-09-23T03:46:15.952Z,168.80
2023-09-23T03:48:46.000Z,131.00
2023-09-23T03:51:16.282Z,79.55
2023-09-23T03:53:48.388Z,106.07
2023-09-23T03:56:16.968Z,127.93
2023-09-23T03:58:45.702Z,136.20
2023-09-23T04:01:15.680Z,209.80
2023-09-23T04:03:44.426Z,168.18
2023-09-23T04:06:13.097Z,165.45
2023-09-23T04:08:42.056Z,216.43
2023-09-23T04:11:17.343Z,117.30
2023-09-23T04:13:47.468Z,153.15
2023-09-23T04:16:16.307Z,158.82
2023-09-23T04:18:45.054Z,203.77
2023-09-23T04:21:13.838Z,236.18
2023-09-23T04:23:42.288Z,137.50
2023-09-23T04:26:14.272Z,81.20
2023-09-23T04:28:43.030Z,127.40
2023-09-23T04:31:14.166Z,134.73
2023-09-23T04:33:42.832Z,144.32
2023-09-23T04:36:12.548Z,105.03
2023-09-23T04:38:41.131Z,212.60
2023-09-23T04:41:11.215Z,205.52
2023-09-23T04:43:42.378Z,145.90
2023-09-23T04:46:15.876Z,274.52
2023-09-23T04:48:45.187Z,204.23
2023-09-23T04:51:13.912Z,234.13
2023-09-23T04:53:42.350Z,270.05
2023-09-23T04:56:19.157Z,207.70
2023-09-23T04:58:47.918Z,237.65
2023-09-23T05:01:17.796Z,225.68
2023-09-23T05:03:46.817Z,171.52
2023-09-23T05:06:15.744Z,171.73
2023-09-23T05:08:45.202Z,164.77
2023-09-23T05:11:15.388Z,263.27
2023-09-23T05:13:43.931Z,181.73
2023-09-23T05:16:12.481Z,161.43
2023-09-23T05:18:41.253Z,199.02
2023-09-23T05:21:10.459Z,234.40
2023-09-23T05:23:41.943Z,205.43
2023-09-23T05:26:10.560Z,303.13
2023-09-23T05:28:40.336Z,194.65
2023-09-23T05:31:09.088Z,189.15
2023-09-23T05:33:39.124Z,221.88
2023-09-23T05:36:07.834Z,261.27
2023-09-23T05:38:37.692Z,273.02
2023-09-23T05:41:06.404Z,320.35
2023-09-23T05:43:34.775Z,407.02
2023-09-23T05:46:08.193Z,246.30
2023-09-23T05:48:37.621Z,418.73
2023-09-23T05:51:07.326Z,281.60
2023-09-23T05:53:35.997Z,475.35
2023-09-23T05:56:04.709Z,461.02
2023-09-23T05:58:33.224Z,510.33
2023-09-23T06:01:01.925Z,483.08
2023-09-23T06:03:31.933Z,529.05
2023-09-23T06:06:01.231Z,450.20
2023-09-23T06:08:29.802Z,492.42
2023-09-23T06:11:06.021Z,516.47
2023-09-23T06:13:35.319Z,510.77
2023-09-23T06:16:07.521Z,503.33
2023-09-23T06:18:38.111Z,505.00
2023-09-23T06:21:07.703Z,531.60
2023-09-23T06:23:36.244Z,581.13
2023-09-23T06:26:07.389Z,568.55
2023-09-23T06:28:36.792Z,616.47
2023-09-23T06:35:38.017Z,648.83
2023-09-23T06:38:08.133Z,670.65
2023-09-23T06:40:36.957Z,653.25
2023-09-23T06:43:06.119Z,698.45
2023-09-23T06:45:34.822Z,706.78
2023-09-23T06:48:03.343Z,681.53
2023-09-23T06:50:32.103Z,673.60
2023-09-23T06:53:02.268Z,702.22
2023-09-23T06:55:32.657Z,683.85
2023-09-23T06:58:01.693Z,671.08
2023-09-23T07:00:30.433Z,701.70
2023-09-23T07:02:59.289Z,677.30
2023-09-23T07:05:28.006Z,716.60
2023-09-23T07:07:57.105Z,725.35
2023-09-23T07:10:27.664Z,730.55
2023-09-23T07:12:57.918Z,697.20
2023-09-23T07:15:26.475Z,735.70
2023-09-23T07:17:55.904Z,686.92
2023-09-23T07:20:24.613Z,689.53
2023-09-23T07:22:53.416Z,726.08
2023-09-23T07:25:22.273Z,743.50
2023-09-23T07:27:50.846Z,761.92
2023-09-23T07:30:21.410Z,778.08
2023-09-23T07:32:50.024Z,727.55
2023-09-23T07:35:19.382Z,762.70
2023-09-23T07:37:48.215Z,776.03
2023-09-23T07:40:17.063Z,813.60
2023-09-23T07:42:46.037Z,829.22
2023-09-23T07:45:14.846Z,771.13
2023-09-23T07:47:44.789Z,804.15
2023-09-23T07:50:13.535Z,786.80
2023-09-23T07:52:42.306Z,741.95
2023-09-23T07:55:11.860Z,777.85
2023-09-23T07:57:40.465Z,850.75
2023-09-23T08:00:10.472Z,784.25
2023-09-23T08:02:39.315Z,743.58
2023-09-23T08:05:10.705Z,762.28
2023-09-23T08:07:39.391Z,747.90
2023-09-23T08:10:09.139Z,788.40
2023-09-23T08:12:38.195Z,736.42
2023-09-23T08:15:09.590Z,777.53
2023-09-23T08:17:40.264Z,750.13
2023-09-23T08:20:19.338Z,773.85
2023-09-23T08:22:48.495Z,778.80
2023-09-23T08:25:20.608Z,751.53
2023-09-23T08:27:51.882Z,797.05
2023-09-23T08:30:20.863Z,765.75
2023-09-23T08:32:49.702Z,775.03
2023-09-23T08:35:30.193Z,779.85
2023-09-23T08:38:04.750Z,730.63
2023-09-23T08:40:46.329Z,736.67
2023-09-23T08:43:15.459Z,753.33
2023-09-23T08:53:49.914Z,745.85
2023-09-23T08:56:18.680Z,725.60
2023-09-23T08:58:49.209Z,744.38
2023-09-23T09:01:19.744Z,780.10
2023-09-23T09:03:49.104Z,759.58
2023-09-23T09:06:20.972Z,773.05
2023-09-23T09:08:50.784Z,759.05
2023-09-23T09:11:26.286Z,825.55
2023-09-23T09:13:54.830Z,748.35
2023-09-23T09:16:23.648Z,793.35
2023-09-23T09:18:53.317Z,902.47
2023-09-23T09:21:22.360Z,809.53
2023-09-23T09:23:52.519Z,833.58
2023-09-23T09:26:22.907Z,798.83
2023-09-23T09:28:51.402Z,780.20
2023-09-23T09:31:20.360Z,852.97
2023-09-23T09:33:51.154Z,782.05
2023-09-23T09:36:20.998Z,804.25
2023-09-23T09:38:53.359Z,833.95
2023-09-23T09:41:27.051Z,889.60
2023-09-23T09:43:56.722Z,786.47
2023-09-23T09:46:30.824Z,866.47
2023-09-23T09:49:00.702Z,818.50
2023-09-23T09:51:31.467Z,772.00
2023-09-23T09:54:01.599Z,751.75
2023-09-23T09:56:30.610Z,837.45
2023-09-23T09:59:00.416Z,833.33
2023-09-23T10:01:30.554Z,831.03
2023-09-23T10:04:00.282Z,795.65
2023-09-23T10:06:29.036Z,795.10
2023-09-23T10:09:01.321Z,819.80
2023-09-23T10:11:36.432Z,804.10
2023-09-23T10:14:17.816Z,776.58
2023-09-23T10:16:52.294Z,922.50
2023-09-23T10:19:31.637Z,826.97
2023-09-23T10:22:19.220Z,831.97
2023-09-23T10:25:04.821Z,901.53
2023-09-23T10:27:37.983Z,874.78
2023-09-23T10:30:07.696Z,806.63
2023-09-23T10:32:36.259Z,823.78
2023-09-23T10:35:05.161Z,839.95
2023-09-23T10:37:34.589Z,816.88
2023-09-23T10:40:13.440Z,855.88
2023-09-23T10:42:43.117Z,894.13
2023-09-23T10:45:12.983Z,849.05
2023-09-23T10:47:41.756Z,804.42
2023-09-23T10:50:11.053Z,925.45
2023-09-23T10:52:40.595Z,865.22
2023-09-23T10:55:12.257Z,811.00
2023-09-23T10:57:40.895Z,876.70
2023-09-23T11:00:22.626Z,801.47
2023-09-23T11:02:55.654Z,801.95
2023-09-23T11:05:25.415Z,812.17
2023-09-23T11:07:57.004Z,809.00
2023-09-23T11:10:27.589Z,790.50
2023-09-23T11:12:57.167Z,842.10
2023-09-23T11:15:25.790Z,837.90
2023-09-23T11:17:56.677Z,815.13
2023-09-23T11:20:30.515Z,858.78
2023-09-23T11:23:04.757Z,831.83
2023-09-23T11:28:05.675Z,839.72
2023-09-23T11:30:34.446Z,841.95
2023-09-23T11:33:03.030Z,809.72
2023-09-23T11:35:31.760Z,818.10
2023-09-23T11:38:00.312Z,787.65
2023-09-23T11:40:28.932Z,768.67
2023-09-23T11:42:58.883Z,819.17
2023-09-23T11:45:27.713Z,751.35
2023-09-23T11:47:58.097Z,780.78
2023-09-23T11:50:27.202Z,763.25
2023-09-23T11:53:21.546Z,803.25
2023-09-23T11:55:50.438Z,769.42
2023-09-23T11:58:21.013Z,806.55
2023-09-23T12:00:50.027Z,744.65
2023-09-23T12:03:19.653Z,788.15
2023-09-23T12:05:50.982Z,795.50
2023-09-23T12:08:20.556Z,801.80
2023-09-23T12:10:49.151Z,755.00
2023-09-23T12:13:19.744Z,704.05
2023-09-23T12:15:55.756Z,721.72
2023-09-23T12:18:25.051Z,717.90
2023-09-23T12:20:55.267Z,757.45
2023-09-23T12:23:25.950Z,747.38
2023-09-23T12:25:55.102Z,722.85
2023-09-23T12:28:28.211Z,680.80
2023-09-23T12:30:56.736Z,727.35
2023-09-23T12:33:25.303Z,715.30
2023-09-23T12:35:53.872Z,721.38
2023-09-23T12:38:34.600Z,781.97
2023-09-23T12:41:03.209Z,700.17
2023-09-23T12:43:35.543Z,716.88
2023-09-23T12:46:04.219Z,772.95
2023-09-23T12:48:32.932Z,706.95
2023-09-23T12:51:02.432Z,669.15
2023-09-23T12:53:31.328Z,759.05
2023-09-23T12:55:59.909Z,734.90
2023-09-23T12:58:28.428Z,737.53
2023-09-23T13:00:58.583Z,743.00
2023-09-23T13:03:28.527Z,758.88
2023-09-23T13:05:58.096Z,794.28
2023-09-23T13:08:26.514Z,771.72
2023-09-23T13:10:55.266Z,692.72
2023-09-23T13:13:24.249Z,745.28
2023-09-23T13:15:53.362Z,725.78
2023-09-23T13:18:23.336Z,802.45
2023-09-23T13:20:52.079Z,707.47
2023-09-23T13:23:20.490Z,735.50
2023-09-23T13:25:49.412Z,787.30
2023-09-23T13:28:18.398Z,760.55
2023-09-23T13:30:47.443Z,803.95
2023-09-23T13:33:20.614Z,835.92
2023-09-23T13:35:50.842Z,768.30
2023-09-23T13:38:19.281Z,836.30
2023-09-23T13:40:47.798Z,796.80
2023-09-23T13:43:16.271Z,763.47
2023-09-23T13:45:45.852Z,785.67
2023-09-23T13:48:14.436Z,773.97
2023-09-23T13:50:43.221Z,776.05
2023-09-23T13:53:13.244Z,810.60
2023-09-23T13:55:41.797Z,790.50
2023-09-23T13:58:10.810Z,863.35
2023-09-23T14:00:40.374Z,844.55
2023-09-23T14:03:24.318Z,773.97
2023-09-23T14:06:32.318Z,773.28
2023-09-23T14:10:20.563Z,853.80
2023-09-23T14:16:02.820Z,756.00
2023-09-23T14:18:56.518Z,735.47
2023-09-23T14:21:25.023Z,809.00
2023-09-23T14:23:53.521Z,839.53
2023-09-23T14:26:22.294Z,784.40
2023-09-23T14:28:52.381Z,852.05
2023-09-23T14:31:21.142Z,809.85
2023-09-23T14:33:51.019Z,818.92
2023-09-23T14:36:19.551Z,826.63
2023-09-23T14:38:48.384Z,896.35
2023-09-23T14:41:17.251Z,851.53
2023-09-23T14:43:46.578Z,841.47
2023-09-23T14:46:16.619Z,822.03
2023-09-23T14:48:46.023Z,828.80
2023-09-23T14:51:15.480Z,847.58
2023-09-23T14:53:44.082Z,824.75
2023-09-23T14:56:13.187Z,846.42
2023-09-23T14:58:41.771Z,841.60
2023-09-23T15:01:11.178Z,845.47
2023-09-23T15:03:42.049Z,884.75
2023-09-23T15:06:10.983Z,868.65
2023-09-23T15:11:43.977Z,885.78
2023-09-23T15:14:18.717Z,834.88
2023-09-23T15:16:48.945Z,842.92
2023-09-23T15:19:19.559Z,816.90
2023-09-23T15:21:48.413Z,827.30
2023-09-23T15:24:18.021Z,844.95
2023-09-23T15:26:50.594Z,812.30
2023-09-23T15:29:19.223Z,787.88
2023-09-23T15:31:48.112Z,794.42
2023-09-23T15:34:18.032Z,845.30
2023-09-23T15:36:48.778Z,833.50
2023-09-23T15:39:17.315Z,851.03
2023-09-23T15:41:45.912Z,877.72
2023-09-23T15:44:14.472Z,872.28
2023-09-23T15:46:56.120Z,891.33
2023-09-23T15:49:28.125Z,871.60
2023-09-23T15:51:57.057Z,868.83
2023-09-23T15:54:26.490Z,878.88
2023-09-23T15:56:55.422Z,873.20
2023-09-23T15:59:27.553Z,876.58
2023-09-23T16:01:56.501Z,871.78
2023-09-23T16:04:26.545Z,845.30
2023-09-23T16:06:55.222Z,877.58
2023-09-23T16:09:24.106Z,851.70
2023-09-23T16:11:53.217Z,846.10
2023-09-23T16:14:21.730Z,856.38
2023-09-23T16:16:50.357Z,847.83
2023-09-23T16:19:19.084Z,888.20
2023-09-23T16:21:50.112Z,923.65
2023-09-23T16:24:18.633Z,893.03
2023-09-23T16:26:47.188Z,878.17
2023-09-23T16:29:18.844Z,868.00
2023-09-23T16:31:47.264Z,861.25
2023-09-23T16:34:30.542Z,872.38
2023-09-23T16:37:00.732Z,846.65
2023-09-23T16:39:29.817Z,864.15
2023-09-23T16:41:58.442Z,828.42
2023-09-23T16:44:27.118Z,828.15
2023-09-23T16:46:56.159Z,863.03
2023-09-23T16:49:25.489Z,818.67
2023-09-23T16:51:54.432Z,799.67
2023-09-23T16:54:24.491Z,801.25
2023-09-23T16:56:53.357Z,779.53
2023-09-23T16:59:24.030Z,788.85
2023-09-23T17:01:53.236Z,794.15
2023-09-23T17:17:44.163Z,787.75
2023-09-23T17:20:15.748Z,775.08
2023-09-23T17:22:44.525Z,779.05
2023-09-23T17:25:13.559Z,767.22
2023-09-23T17:27:42.161Z,777.72
2023-09-23T17:30:11.857Z,748.50
2023-09-23T17:32:40.932Z,768.35
2023-09-23T17:35:12.032Z,758.05
2023-09-23T17:37:40.553Z,769.55
2023-09-23T17:40:10.130Z,772.80
2023-09-23T17:42:38.835Z,788.83
2023-09-23T17:45:09.045Z,760.05
2023-09-23T17:47:37.648Z,839.75
2023-09-23T17:50:07.553Z,773.33
2023-09-23T17:52:37.614Z,779.60
2023-09-23T17:55:07.135Z,769.50
2023-09-23T17:57:35.793Z,785.28
2023-09-23T18:00:06.127Z,755.30
2023-09-23T18:02:34.932Z,780.90
2023-09-23T18:05:03.904Z,776.03
2023-09-23T18:07:32.888Z,781.78
2023-09-23T18:10:03.827Z,770.13
2023-09-23T18:12:33.851Z,779.67
2023-09-23T18:15:02.785Z,750.78
2023-09-23T18:17:31.529Z,764.65
2023-09-23T18:20:00.868Z,751.75
2023-09-23T18:22:29.430Z,745.28
2023-09-23T18:25:07.987Z,741.80
2023-09-23T18:27:37.143Z,739.75
2023-09-23T18:30:06.644Z,714.92
2023-09-23T18:32:35.395Z,720.25
2023-09-23T18:35:05.682Z,678.35
2023-09-23T18:37:34.442Z,699.35
2023-09-23T18:40:04.622Z,693.78
2023-09-23T18:42:33.037Z,699.78
2023-09-23T18:45:02.589Z,675.83
2023-09-23T18:47:31.124Z,722.92
2023-09-23T18:49:59.916Z,691.63
2023-09-23T18:52:28.489Z,695.63
2023-09-23T18:54:56.992Z,715.42
2023-09-23T18:57:26.869Z,703.60
2023-09-23T19:00:15.038Z,732.58
2023-09-23T19:02:44.860Z,704.97
2023-09-23T19:05:13.596Z,719.10
2023-09-23T19:07:42.057Z,708.30
2023-09-23T19:10:12.009Z,706.65
2023-09-23T19:12:45.411Z,676.35
2023-09-23T19:15:17.072Z,654.65
2023-09-23T19:17:45.764Z,669.38
2023-09-23T19:20:14.564Z,665.00
2023-09-23T19:22:43.118Z,672.75
2023-09-23T19:25:11.661Z,694.83
2023-09-23T19:27:41.485Z,662.58
2023-09-23T19:30:15.174Z,662.55
2023-09-23T19:32:44.158Z,703.00
2023-09-23T19:35:13.247Z,669.55
2023-09-23T19:37:42.007Z,694.63
2023-09-23T19:40:11.835Z,711.33
2023-09-23T19:42:48.245Z,715.38
2023-09-23T19:45:18.894Z,699.58
2023-09-23T19:47:48.260Z,724.83
2023-09-23T19:50:17.365Z,708.95
2023-09-23T19:52:46.481Z,744.58
2023-09-23T19:55:17.647Z,711.53
2023-09-23T19:57:48.249Z,729.13
2023-09-23T20:00:19.048Z,677.50
2023-09-23T20:02:48.782Z,691.75
2023-09-23T20:05:17.930Z,719.67
2023-09-23T20:07:46.624Z,682.47
2023-09-23T20:10:16.789Z,676.95
2023-09-23T20:12:45.524Z,666.13
2023-09-23T20:15:15.592Z,679.90
2023-09-23T20:17:47.548Z,678.13
2023-09-23T20:20:16.419Z,704.17
2023-09-23T20:22:45.472Z,671.75
2023-09-23T20:25:15.821Z,733.00
2023-09-23T20:27:45.521Z,710.70
2023-09-23T20:30:15.654Z,722.65
2023-09-23T20:32:45.680Z,674.75
2023-09-23T20:35:14.508Z,671.35
2023-09-23T20:37:43.851Z,696.40
2023-09-23T20:40:14.076Z,683.63
2023-09-23T20:42:43.050Z,716.58
2023-09-23T20:45:13.718Z,717.20
2023-09-23T20:47:42.325Z,730.75
2023-09-23T20:50:14.129Z,676.40
2023-09-23T20:52:42.878Z,693.78
2023-09-23T20:55:12.463Z,707.72
2023-09-23T20:57:41.035Z,736.88
2023-09-23T21:00:10.996Z,740.78
2023-09-23T21:02:39.717Z,755.78
2023-09-23T21:05:09.883Z,771.63
2023-09-23T21:07:39.725Z,741.92
2023-09-23T21:10:11.718Z,707.63
2023-09-23T21:12:40.113Z,695.00
2023-09-23T21:15:15.580Z,714.03
2023-09-23T21:17:45.426Z,723.30
2023-09-23T21:20:15.703Z,730.60
2023-09-23T21:22:46.755Z,723.80
2023-09-23T21:25:15.794Z,719.50
2023-09-23T21:27:44.375Z,684.15
2023-09-23T21:30:13.728Z,657.97
2023-09-23T21:32:42.460Z,669.03
2023-09-23T21:35:11.798Z,689.67
2023-09-23T21:37:40.415Z,650.85
2023-09-23T21:40:12.766Z,665.80
2023-09-23T21:42:41.340Z,641.80
2023-09-23T21:45:12.903Z,655.28
2023-09-23T21:47:41.903Z,655.72
2023-09-23T21:50:11.329Z,625.80
2023-09-23T21:52:40.001Z,592.72
2023-09-23T21:55:11.782Z,611.70
2023-09-23T21:57:40.373Z,628.90
2023-09-23T22:00:26.699Z,573.10
2023-09-23T22:02:55.937Z,602.83
2023-09-23T22:05:24.554Z,541.13
2023-09-23T22:07:56.088Z,548.65
2023-09-23T22:10:26.316Z,598.78
2023-09-23T22:12:57.043Z,599.97
2023-09-23T22:15:27.653Z,592.08
2023-09-23T22:17:58.601Z,614.53
2023-09-23T22:20:29.234Z,583.70
2023-09-23T22:23:00.059Z,525.13
2023-09-23T22:25:30.681Z,523.35
2023-09-23T22:27:59.185Z,517.65
2023-09-23T22:30:27.688Z,521.63
2023-09-23T22:32:57.043Z,516.08
2023-09-23T22:35:26.363Z,506.58
2023-09-23T22:37:55.311Z,475.40
2023-09-23T22:40:24.419Z,398.83
2023-09-23T22:42:55.570Z,434.85
2023-09-23T22:45:38.051Z,393.10
2023-09-23T22:48:09.624Z,463.60
2023-09-23T22:50:38.568Z,393.02
2023-09-23T22:53:07.508Z,340.05
2023-09-23T22:55:36.054Z,275.58
2023-09-23T22:58:06.342Z,357.17
2023-09-23T23:00:37.006Z,347.25
2023-09-23T23:03:07.742Z,351.38
2023-09-23T23:05:38.150Z,284.45
2023-09-23T23:08:09.170Z,249.48
2023-09-23T23:10:38.169Z,149.90
2023-09-23T23:13:10.453Z,236.50
2023-09-23T23:15:40.318Z,266.75
2023-09-23T23:18:09.735Z,216.80
2023-09-23T23:20:39.801Z,201.43
2023-09-23T23:23:08.492Z,210.20
2023-09-23T23:25:38.429Z,218.05
2023-09-23T23:28:08.966Z,158.13
2023-09-23T23:30:38.328Z,121.93
2023-09-23T23:33:07.293Z,184.02
2023-09-23T23:35:38.437Z,146.25
2023-09-23T23:38:07.198Z,155.05
2023-09-23T23:40:35.816Z,97.80
2023-09-23T23:43:05.044Z,180.57
2023-09-23T23:45:35.272Z,121.00
2023-09-23T23:48:03.977Z,121.38
2023-09-23T23:50:32.730Z,143.90
2023-09-23T23:53:03.880Z,176.07
2023-09-23T23:55:32.593Z,102.80
2023-09-23T23:58:01.081Z,84.20
